Time;durP1;ratioP1;P1;durP2;ratioP2;P2;SDS_P1;SDS_P2;PMS_P1;PMS_P2;Temp;Humidity;BMP_temperature;BMP_pressure;BME280_temperature;BME280_humidity;BME280_pressure;Samples;Min_cycle;Max_cycle;Signal;HPM_P1;HPM_P2
2021/05/24 00:00:40;;;;;;;8.20;5.33;;;;;;;12.83;100.00;100420.70;1750246;81;22096;-67
2021/05/24 00:03:07;;;;;;;12.87;5.50;;;;;;;12.87;100.00;100419.30;1743489;80;21698;-60
2021/05/24 00:05:35;;;;;;;20.17;11.50;;;;;;;12.88;100.00;100426.68;1704879;82;22141;-65
2021/05/24 00:08:03;;;;;;;29.27;14.93;;;;;;;12.89;100.00;100406.85;1700550;83;21410;-65
2021/05/24 00:10:32;;;;;;;13.83;7.80;;;;;;;12.88;100.00;100397.91;1704453;83;21556;-65
2021/05/24 00:13:03;;;;;;;13.17;6.83;;;;;;;12.88;100.00;100397.91;1709008;83;22048;-66
2021/05/24 00:15:42;;;;;;;26.05;16.02;;;;;;;12.82;100.00;100412.55;1702803;83;21343;-66
2021/05/24 00:18:09;;;;;;;32.97;20.17;;;;;;;12.71;100.00;100414.91;1706474;83;21073;-62
2021/05/24 00:20:43;;;;;;;33.43;19.17;;;;;;;12.71;100.00;100414.91;1718978;82;21467;-65
2021/05/24 00:23:09;;;;;;;;;;;;;;;12.65;100.00;100426.92;1712427;82;21506;-66
2021/05/24 00:25:38;;;;;;;31.27;18.67;;;;;;;12.59;100.00;100417.25;1682379;83;20258;-65
2021/05/24 00:28:13;;;;;;;21.63;14.30;;;;;;;12.52;100.00;100417.70;1719624;81;21276;-65
2021/05/24 00:30:46;;;;;;;30.97;20.10;;;;;;;12.45;100.00;100422.08;1714549;82;21425;-66
2021/05/24 00:33:13;;;;;;;45.55;26.62;;;;;;;12.39;100.00;100425.78;1715665;82;21327;-66
2021/05/24 00:35:42;;;;;;;79.90;39.97;;;;;;;12.32;100.00;100415.77;1712322;82;21724;-66
2021/05/24 00:38:10;;;;;;;145.87;66.43;;;;;;;12.28;100.00;100401.47;1711466;83;21380;-65
2021/05/24 00:40:37;;;;;;;191.50;88.03;;;;;;;12.26;100.00;100411.29;1713372;82;21282;-66
2021/05/24 00:43:05;;;;;;;171.60;71.50;;;;;;;12.25;100.00;100414.91;1709740;82;21199;-66
2021/05/24 00:45:33;;;;;;;135.70;56.23;;;;;;;12.27;100.00;100418.62;1712718;82;21797;-61
2021/05/24 00:47:59;;;;;;;60.63;27.13;;;;;;;12.24;100.00;100408.08;1710738;82;21223;-67
2021/05/24 00:50:27;;;;;;;43.77;21.13;;;;;;;12.23;100.00;100412.17;1711910;83;21257;-66
2021/05/24 00:52:54;;;;;;;25.73;12.80;;;;;;;12.21;100.00;100405.84;1709046;82;21318;-65
2021/05/24 00:55:21;;;;;;;26.47;13.07;;;;;;;12.20;100.00;100414.68;1710842;82;21457;-66
2021/05/24 00:57:47;;;;;;;20.17;11.00;;;;;;;12.17;100.00;100417.16;1715567;82;21222;-62
2021/05/24 01:00:22;;;;;;;18.60;10.07;;;;;;;12.13;100.00;100421.66;1709407;82;21364;-65
2021/05/24 01:02:50;;;;;;;17.63;9.70;;;;;;;12.11;100.00;100428.36;1692324;82;21781;-61
2021/05/24 01:05:17;;;;;;;18.37;10.53;;;;;;;12.10;100.00;100430.67;1698645;83;21908;-66
2021/05/24 01:07:43;;;;;;;16.93;8.13;;;;;;;12.07;100.00;100431.55;1698145;83;22070;-65
2021/05/24 01:10:10;;;;;;;16.83;8.50;;;;;;;12.03;100.00;100427.19;1732837;81;21221;-66
2021/05/24 01:12:38;;;;;;;20.13;7.60;;;;;;;12.01;100.00;100425.28;1728571;81;21262;-62
2021/05/24 01:15:06;;;;;;;15.20;8.03;;;;;;;11.99;100.00;100418.11;1733754;81;21733;-64
2021/05/24 01:17:33;;;;;;;17.27;9.07;;;;;;;11.99;100.00;100418.62;1733173;82;21287;-63
2021/05/24 01:20:00;;;;;;;19.27;11.70;;;;;;;11.97;100.00;100416.67;1744652;81;21260;-65
2021/05/24 01:22:27;;;;;;;18.17;9.57;;;;;;;11.97;100.00;100420.13;1742839;81;21252;-61
2021/05/24 01:24:54;;;;;;;19.03;8.80;;;;;;;11.97;100.00;100425.35;1736273;81;21307;-66
2021/05/24 01:27:20;;;;;;;14.43;8.20;;;;;;;11.97;100.00;100423.20;1740448;81;21244;-67
2021/05/24 01:30:09;;;;;;;13.37;8.47;;;;;;;11.96;100.00;100426.83;1740468;81;21336;-65
2021/05/24 01:32:36;;;;;;;16.83;7.80;;;;;;;11.95;100.00;100428.63;1678686;84;21366;-66
2021/05/24 01:35:04;;;;;;;14.03;8.70;;;;;;;11.95;100.00;100426.52;1679295;84;21456;-66
2021/05/24 01:37:30;;;;;;;31.27;15.63;;;;;;;11.96;100.00;100428.13;1678924;84;21245;-66
2021/05/24 01:40:00;;;;;;;30.17;14.67;;;;;;;11.93;100.00;100423.61;1675728;84;21154;-65
2021/05/24 01:42:27;;;;;;;16.87;8.33;;;;;;;11.96;100.00;100424.22;1683280;84;21291;-66
2021/05/24 01:44:54;;;;;;;15.60;7.07;;;;;;;11.97;100.00;100434.97;1677770;84;21389;-66
2021/05/24 01:47:21;;;;;;;10.70;6.97;;;;;;;11.93;100.00;100434.06;1679740;84;21270;-62
2021/05/24 01:49:48;;;;;;;12.23;6.20;;;;;;;11.92;100.00;100435.53;1681893;84;21358;-65
2021/05/24 01:52:16;;;;;;;14.97;6.40;;;;;;;11.90;100.00;100435.73;1679097;84;21288;-66
2021/05/24 01:54:43;;;;;;;13.47;6.37;;;;;;;11.90;100.00;100442.77;1682474;84;21338;-66
2021/05/24 01:57:10;;;;;;;33.47;17.43;;;;;;;11.89;100.00;100448.48;1678149;84;21318;-66
2021/05/24 01:59:36;;;;;;;22.90;12.20;;;;;;;11.90;100.00;100447.48;1684918;84;21794;-60
2021/05/24 02:02:03;;;;;;;21.40;11.40;;;;;;;11.88;100.00;100453.38;1674754;84;21223;-60
2021/05/24 02:04:30;;;;;;;18.10;9.30;;;;;;;11.89;100.00;100456.33;1686493;84;21307;-65
2021/05/24 02:06:58;;;;;;;15.80;8.70;;;;;;;11.91;100.00;100462.66;1681605;84;21912;-62
2021/05/24 02:09:26;;;;;;;14.93;7.87;;;;;;;11.94;100.00;100467.52;1684645;84;21933;-65
2021/05/24 02:11:54;;;;;;;13.97;8.00;;;;;;;11.97;100.00;100478.91;1678277;84;21286;-60
2021/05/24 02:14:23;;;;;;;12.77;6.73;;;;;;;12.00;100.00;100485.55;1683113;84;22658;-65
2021/05/24 02:16:51;;;;;;;13.87;6.83;;;;;;;12.01;100.00;100483.23;1695466;83;21420;-65
2021/05/24 02:19:19;;;;;;;10.87;6.13;;;;;;;12.04;100.00;100481.56;1681279;84;21284;-66
2021/05/24 02:21:47;;;;;;;15.07;7.57;;;;;;;12.07;100.00;100482.50;1679103;84;21752;-65
2021/05/24 02:24:14;;;;;;;45.30;18.23;;;;;;;12.17;100.00;100475.16;1685398;84;21422;-66
2021/05/24 02:26:42;;;;;;;28.63;12.47;;;;;;;12.17;100.00;100475.16;1675517;84;21543;-65
2021/05/24 02:29:10;;;;;;;16.33;6.80;;;;;;;12.29;100.00;100480.18;1681361;84;21305;-67
2021/05/24 02:31:37;;;;;;;8.37;4.63;;;;;;;12.43;100.00;100477.19;1684358;83;21420;-62
2021/05/24 02:34:06;;;;;;;10.30;5.40;;;;;;;12.43;100.00;100477.19;1683173;84;21348;-62
2021/05/24 02:36:33;;;;;;;12.70;5.40;;;;;;;12.58;100.00;100484.94;1683657;83;21223;-66
2021/05/24 02:39:05;;;;;;;9.80;5.70;;;;;;;12.58;100.00;100484.94;1683868;84;21436;-65
2021/05/24 02:41:32;;;;;;;11.53;6.22;;;;;;;12.60;100.00;100484.23;1683345;83;21313;-63
2021/05/24 02:43:58;;;;;;;14.60;5.70;;;;;;;12.68;100.00;100489.82;1683353;84;21496;-61
2021/05/24 02:46:27;;;;;;;10.97;6.57;;;;;;;12.73;100.00;100497.89;1680894;85;21566;-65
2021/05/24 02:48:54;;;;;;;11.00;6.03;;;;;;;12.70;100.00;100497.80;1683126;85;22096;-65
2021/05/24 02:51:20;;;;;;;10.97;6.33;;;;;;;12.74;100.00;100492.48;1683630;83;21539;-66
2021/05/24 02:53:48;;;;;;;12.83;6.07;;;;;;;12.80;100.00;100496.94;1683310;84;21790;-61
2021/05/24 02:56:14;;;;;;;8.73;5.07;;;;;;;12.80;100.00;100496.94;1683486;85;21804;-66
2021/05/24 02:58:41;;;;;;;12.50;5.20;;;;;;;12.86;100.00;100498.00;1681259;84;22754;-65
2021/05/24 03:01:07;;;;;;;9.47;4.87;;;;;;;12.95;100.00;100502.06;1701300;79;21451;-65
2021/05/24 03:03:35;;;;;;;8.97;6.33;;;;;;;13.05;100.00;100512.20;1730572;81;22192;-62
2021/05/24 03:06:03;;;;;;;14.00;7.07;;;;;;;13.15;100.00;100514.78;1732141;82;22284;-66
2021/05/24 03:08:32;;;;;;;12.60;7.47;;;;;;;13.12;100.00;100518.28;1729827;82;21616;-67
2021/05/24 03:10:59;;;;;;;10.57;7.17;;;;;;;13.15;100.00;100523.14;1729150;81;21709;-67
2021/05/24 03:13:26;;;;;;;15.57;6.87;;;;;;;13.16;100.00;100519.51;1729331;81;22313;-66
2021/05/24 03:15:53;;;;;;;11.87;6.40;;;;;;;13.21;100.00;100517.61;1733763;82;21707;-66
2021/05/24 03:18:20;;;;;;;10.33;5.97;;;;;;;13.35;100.00;100508.86;1729317;81;21782;-65
2021/05/24 03:20:47;;;;;;;9.00;5.80;;;;;;;13.35;100.00;100508.86;1731812;81;21624;-65
2021/05/24 03:23:14;;;;;;;16.07;6.40;;;;;;;13.51;100.00;100513.75;1725299;80;21765;-64
2021/05/24 03:25:41;;;;;;;10.77;5.70;;;;;;;13.63;100.00;100518.73;1733528;81;22284;-64
2021/05/24 03:28:08;;;;;;;10.57;6.00;;;;;;;13.82;100.00;100521.10;1728846;81;21108;-63
2021/05/24 03:30:35;;;;;;;11.20;6.07;;;;;;;14.14;100.00;100526.62;1730075;80;21793;-64
2021/05/24 03:33:02;;;;;;;7.47;4.70;;;;;;;14.64;100.00;100525.77;1729953;81;21025;-64
2021/05/24 03:35:29;;;;;;;11.00;5.70;;;;;;;15.08;100.00;100521.67;1726102;81;21098;-66
2021/05/24 03:37:56;;;;;;;8.47;6.07;;;;;;;15.24;100.00;100529.09;1732675;82;21515;-66
2021/05/24 03:40:23;;;;;;;10.93;5.10;;;;;;;15.28;100.00;100525.04;1728146;81;21013;-64
2021/05/24 03:42:51;;;;;;;9.53;4.93;;;;;;;15.36;100.00;100525.83;1728490;80;21546;-66
2021/05/24 03:45:22;;;;;;;8.83;5.10;;;;;;;15.49;100.00;100534.47;1730739;80;20914;-65
2021/05/24 03:47:48;;;;;;;12.40;6.27;;;;;;;15.57;100.00;100534.75;1729149;80;21629;-62
2021/05/24 03:50:15;;;;;;;7.87;5.43;;;;;;;15.63;100.00;100524.69;1737187;81;21036;-62
2021/05/24 03:52:43;;;;;;;10.87;5.00;;;;;;;15.76;100.00;100522.05;1732150;82;20910;-66
2021/05/24 03:55:10;;;;;;;9.47;5.03;;;;;;;15.81;100.00;100524.84;1731065;81;20993;-63
2021/05/24 03:57:37;;;;;;;8.63;5.87;;;;;;;15.84;100.00;100528.08;1732998;80;20899;-64
2021/05/24 04:00:06;;;;;;;7.73;4.47;;;;;;;15.89;100.00;100539.56;1728862;81;21114;-64
2021/05/24 04:02:34;;;;;;;7.40;4.40;;;;;;;15.92;100.00;100548.34;1746242;81;28927;-64
2021/05/24 04:05:09;;;;;;;13.03;5.10;;;;;;;15.92;100.00;100544.91;1747793;81;21166;-65
2021/05/24 04:07:30;;;;;;;9.37;4.90;;;;;;;15.97;100.00;100552.96;1747752;80;21553;-69
2021/05/24 04:09:56;;;;;;;9.70;5.00;;;;;;;16.03;100.00;100551.63;1746810;80;21636;-67
2021/05/24 04:12:22;;;;;;;11.90;5.57;;;;;;;16.13;100.00;100557.71;1749792;80;21546;-68
2021/05/24 04:14:50;;;;;;;7.20;5.00;;;;;;;16.23;100.00;100563.32;1746881;80;21096;-68
2021/05/24 04:17:20;;;;;;;8.37;4.73;;;;;;;16.34;100.00;100546.56;1747989;81;21124;-67
2021/05/24 04:19:45;;;;;;;8.47;4.90;;;;;;;16.43;100.00;100553.16;1747965;80;21167;-62
2021/05/24 04:22:11;;;;;;;9.37;5.00;;;;;;;16.41;100.00;100544.70;1746907;81;21306;-65
2021/05/24 04:24:38;;;;;;;11.33;5.70;;;;;;;16.33;100.00;100544.93;1747232;81;21104;-64
2021/05/24 04:27:05;;;;;;;8.97;5.60;;;;;;;16.26;100.00;100548.44;1750019;80;21027;-68
2021/05/24 04:29:32;;;;;;;9.37;6.50;;;;;;;16.17;100.00;100556.78;1752336;80;20961;-62
2021/05/24 04:32:00;;;;;;;15.93;6.77;;;;;;;16.13;100.00;100552.45;1747877;80;21020;-68
2021/05/24 04:34:26;;;;;;;11.87;7.07;;;;;;;16.15;100.00;100553.06;1749270;81;21269;-66
2021/05/24 04:36:53;;;;;;;13.23;6.60;;;;;;;16.16;100.00;100552.03;1750178;80;21625;-66
2021/05/24 04:39:20;;;;;;;22.47;5.77;;;;;;;16.20;100.00;100557.16;1750939;80;20899;-67
2021/05/24 04:41:48;;;;;;;11.63;6.03;;;;;;;16.20;100.00;100550.59;1748676;80;21547;-66
2021/05/24 04:44:19;;;;;;;10.63;4.60;;;;;;;16.21;100.00;100550.91;1748253;81;22399;-61
2021/05/24 04:46:47;;;;;;;15.63;9.93;;;;;;;16.24;100.00;100561.49;1753033;80;21506;-66
2021/05/24 04:49:15;;;;;;;18.40;11.67;;;;;;;16.23;100.00;100569.90;1749124;81;20929;-67
2021/05/24 04:51:42;;;;;;;16.73;10.87;;;;;;;16.26;100.00;100566.84;1748883;80;21589;-67
2021/05/24 04:54:09;;;;;;;23.07;14.60;;;;;;;16.40;100.00;100560.16;1748191;81;21046;-66
2021/05/24 04:56:36;;;;;;;20.33;11.87;;;;;;;16.56;100.00;100558.34;1751827;80;21569;-67
2021/05/24 04:59:04;;;;;;;19.20;11.40;;;;;;;16.73;100.00;100558.11;1747246;80;21048;-66
2021/05/24 05:01:30;;;;;;;17.67;11.17;;;;;;;16.87;100.00;100556.69;1746710;81;21093;-63
2021/05/24 05:03:57;;;;;;;15.67;10.27;;;;;;;16.99;100.00;100552.31;1740327;80;21492;-61
2021/05/24 05:06:23;;;;;;;16.90;10.07;;;;;;;17.07;100.00;100553.85;1741701;80;22245;-66
2021/05/24 05:08:50;;;;;;;16.67;10.77;;;;;;;17.18;100.00;100546.55;1741865;80;21569;-66
2021/05/24 05:11:17;;;;;;;14.63;9.03;;;;;;;17.29;100.00;100549.77;1742853;81;21298;-69
2021/05/24 05:13:43;;;;;;;15.97;10.13;;;;;;;17.43;100.00;100559.14;1740132;80;21681;-66
2021/05/24 05:16:11;;;;;;;19.93;12.20;;;;;;;17.53;100.00;100553.84;1744626;80;21025;-61
2021/05/24 05:18:38;;;;;;;20.83;11.97;;;;;;;17.59;100.00;100558.24;1739018;82;21101;-68
2021/05/24 05:21:05;;;;;;;17.70;11.60;;;;;;;17.65;100.00;100563.44;1746773;80;21005;-67
2021/05/24 05:23:31;;;;;;;14.57;8.63;;;;;;;17.69;100.00;100567.73;1741898;80;21013;-63
2021/05/24 05:25:58;;;;;;;11.00;6.63;;;;;;;17.77;100.00;100570.61;1742888;82;21116;-68
2021/05/24 05:28:24;;;;;;;14.83;7.93;;;;;;;17.86;100.00;100566.65;1738732;80;21100;-68
2021/05/24 05:30:51;;;;;;;12.97;7.60;;;;;;;17.92;100.00;100559.17;1742759;82;21033;-68
2021/05/24 05:33:18;;;;;;;11.23;6.00;;;;;;;17.97;100.00;100555.34;1739576;82;20935;-68
2021/05/24 05:35:47;;;;;;;15.23;5.70;;;;;;;18.01;100.00;100559.13;1742311;82;20985;-62
2021/05/24 05:38:14;;;;;;;11.97;5.73;;;;;;;18.07;100.00;100560.05;1740116;81;21062;-62
2021/05/24 05:40:43;;;;;;;12.97;5.67;;;;;;;18.15;100.00;100559.77;1743878;80;21107;-68
2021/05/24 05:43:10;;;;;;;13.03;6.30;;;;;;;18.20;100.00;100558.56;1741355;80;21117;-69
2021/05/24 05:45:37;;;;;;;16.97;6.10;;;;;;;18.27;100.00;100564.55;1744327;80;20978;-69
2021/05/24 05:48:04;;;;;;;14.83;6.50;;;;;;;18.34;100.00;100559.17;1742064;82;21042;-67
2021/05/24 05:50:31;;;;;;;16.50;6.97;;;;;;;18.38;100.00;100557.69;1742151;80;21081;-68
2021/05/24 05:52:58;;;;;;;15.37;5.73;;;;;;;18.44;100.00;100568.64;1735877;80;21195;-68
2021/05/24 05:55:24;;;;;;;15.57;5.80;;;;;;;18.48;100.00;100562.67;1736910;80;21124;-63
2021/05/24 05:57:51;;;;;;;12.73;6.07;;;;;;;18.56;100.00;100563.38;1742665;80;21045;-69
2021/05/24 06:00:18;;;;;;;10.17;5.50;;;;;;;18.63;100.00;100558.27;1740357;80;21697;-66
2021/05/24 06:02:44;;;;;;;8.27;5.23;;;;;;;18.68;100.00;100560.25;1747008;81;21569;-66
2021/05/24 06:05:12;;;;;;;10.13;4.40;;;;;;;18.68;100.00;100559.73;1747318;80;20964;-67
2021/05/24 06:07:39;;;;;;;10.27;4.50;;;;;;;18.74;100.00;100558.55;1749685;80;21530;-66
2021/05/24 06:10:08;;;;;;;10.17;4.10;;;;;;;18.81;100.00;100559.24;1749050;81;21004;-67
2021/05/24 06:12:34;;;;;;;6.90;3.87;;;;;;;18.88;100.00;100552.81;1742784;81;20976;-62
2021/05/24 06:15:02;;;;;;;9.97;3.80;;;;;;;19.02;100.00;100559.98;1752333;80;22166;-69
2021/05/24 06:17:29;;;;;;;8.07;3.60;;;;;;;19.25;100.00;100564.97;1744420;81;21056;-70
2021/05/24 06:19:57;;;;;;;9.33;3.30;;;;;;;19.48;100.00;100570.19;1747179;80;20957;-60
2021/05/24 06:22:24;;;;;;;6.77;3.47;;;;;;;19.67;100.00;100564.25;1749557;81;20996;-67
2021/05/24 06:24:50;;;;;;;7.23;3.30;;;;;;;19.95;100.00;100568.72;1749628;81;20984;-61
2021/05/24 06:27:17;;;;;;;7.07;3.57;;;;;;;20.23;100.00;100560.46;1749969;81;21027;-67
2021/05/24 06:29:43;;;;;;;7.83;3.13;;;;;;;20.59;100.00;100565.33;1748464;80;20973;-67
2021/05/24 06:32:10;;;;;;;9.97;3.73;;;;;;;21.10;100.00;100566.06;1748586;80;21312;-67
2021/05/24 06:34:37;;;;;;;7.97;3.50;;;;;;;21.68;100.00;100557.23;1748163;80;22604;-66
2021/05/24 06:37:04;;;;;;;12.20;4.00;;;;;;;22.14;100.00;100551.60;1746672;81;21044;-69
2021/05/24 06:39:31;;;;;;;9.70;4.00;;;;;;;22.53;100.00;100554.30;1749893;80;21159;-67
2021/05/24 06:41:58;;;;;;;8.87;4.00;;;;;;;22.96;100.00;100564.45;1748962;80;20946;-69
2021/05/24 06:44:24;;;;;;;9.77;4.77;;;;;;;23.31;100.00;100564.34;1750624;80;20977;-67
2021/05/24 06:46:51;;;;;;;10.80;5.23;;;;;;;23.60;100.00;100562.06;1748461;81;21123;-62
2021/05/24 06:49:18;;;;;;;13.43;5.10;;;;;;;24.01;100.00;100566.14;1748766;81;21056;-67
2021/05/24 06:51:47;;;;;;;8.70;3.93;;;;;;;24.31;100.00;100561.36;1748971;80;21089;-68
2021/05/24 06:54:13;;;;;;;13.97;4.57;;;;;;;24.66;100.00;100569.09;1748608;81;20981;-66
2021/05/24 06:56:40;;;;;;;8.37;3.90;;;;;;;24.75;92.50;100570.95;1748254;80;20965;-67
2021/05/24 06:59:07;;;;;;;9.03;4.13;;;;;;;24.74;96.23;100573.36;1708374;83;21005;-61
2021/05/24 07:01:36;;;;;;;11.83;4.80;;;;;;;25.00;96.77;100569.28;1692880;83;21054;-67
2021/05/24 07:04:04;;;;;;;11.93;4.47;;;;;;;25.37;89.90;100559.57;1686736;83;21129;-68
2021/05/24 07:06:30;;;;;;;8.35;3.92;;;;;;;25.76;80.95;100558.02;1685476;83;21595;-68
2021/05/24 07:08:57;;;;;;;9.43;3.90;;;;;;;25.79;84.05;100564.98;1685174;83;21094;-61
2021/05/24 07:11:24;;;;;;;10.20;3.60;;;;;;;25.73;80.09;100561.53;1686706;83;20912;-66
2021/05/24 07:13:51;;;;;;;9.20;4.00;;;;;;;25.62;77.98;100561.86;1688809;83;21548;-64
2021/05/24 07:16:19;;;;;;;7.47;3.70;;;;;;;25.42;79.98;100559.56;1682078;83;21061;-64
2021/05/24 07:18:46;;;;;;;9.63;4.97;;;;;;;25.34;77.78;100557.45;1684321;83;20872;-65
2021/05/24 07:21:13;;;;;;;7.13;4.00;;;;;;;25.11;84.30;100554.88;1687831;83;20947;-62
2021/05/24 07:23:40;;;;;;;7.20;3.80;;;;;;;24.97;93.09;100558.64;1681075;83;20990;-65
2021/05/24 07:26:07;;;;;;;7.90;3.90;;;;;;;24.97;87.44;100555.97;1676283;83;21038;-64
2021/05/24 07:28:34;;;;;;;7.90;3.20;;;;;;;24.89;82.79;100557.87;1677087;83;21138;-66
2021/05/24 07:31:01;;;;;;;10.50;3.30;;;;;;;24.73;87.79;100554.41;1687608;83;21042;-66
2021/05/24 07:33:27;;;;;;;7.37;3.40;;;;;;;24.62;89.86;100551.50;1686900;83;21014;-65
2021/05/24 07:35:55;;;;;;;6.93;3.00;;;;;;;24.45;94.05;100554.47;1686326;83;21070;-67
2021/05/24 07:38:21;;;;;;;7.00;3.37;;;;;;;24.27;95.43;100549.64;1687809;83;20975;-67
2021/05/24 07:40:48;;;;;;;6.87;3.83;;;;;;;24.03;99.88;100552.05;1689045;83;21088;-62
2021/05/24 07:43:15;;;;;;;6.87;3.40;;;;;;;23.96;100.00;100551.50;1688013;83;20990;-61
2021/05/24 07:45:43;;;;;;;4.77;2.73;;;;;;;23.96;100.00;100548.30;1700410;82;21532;-66
2021/05/24 07:48:11;;;;;;;5.27;3.03;;;;;;;23.91;100.00;100546.18;1676677;83;21588;-60
2021/05/24 07:50:38;;;;;;;5.83;3.30;;;;;;;23.80;100.00;100548.02;1677955;83;21786;-65
2021/05/24 07:53:04;;;;;;;7.17;3.50;;;;;;;23.72;100.00;100541.89;1700908;83;21136;-65
2021/05/24 07:55:31;;;;;;;7.80;3.20;;;;;;;23.63;100.00;100549.53;1701623;83;21637;-62
2021/05/24 07:57:58;;;;;;;5.20;2.50;;;;;;;23.56;100.00;100542.33;1699393;82;21690;-66
2021/05/24 08:00:28;;;;;;;7.40;2.97;;;;;;;23.58;100.00;100544.75;1698012;82;21112;-66
2021/05/24 08:02:54;;;;;;;8.53;3.10;;;;;;;23.56;100.00;100542.33;1698950;83;21120;-65
2021/05/24 08:05:21;;;;;;;5.60;3.20;;;;;;;23.64;100.00;100555.15;1700711;82;21179;-62
2021/05/24 08:07:47;;;;;;;6.80;2.83;;;;;;;23.69;100.00;100553.84;1700193;83;21021;-66
2021/05/24 08:10:18;;;;;;;4.80;2.37;;;;;;;23.60;99.57;100558.06;1698947;82;21685;-66
2021/05/24 08:12:46;;;;;;;5.60;2.50;;;;;;;23.47;100.00;100552.69;1695551;82;21056;-67
2021/05/24 08:15:18;;;;;;;7.53;3.37;;;;;;;23.35;99.59;100559.30;1700307;84;21335;-67
2021/05/24 08:17:45;;;;;;;7.07;2.80;;;;;;;23.26;100.00;100556.33;1700744;84;21137;-66
2021/05/24 08:20:15;;;;;;;7.33;2.97;;;;;;;23.20;100.00;100554.72;1701432;84;21020;-67
2021/05/24 08:22:42;;;;;;;7.53;2.73;;;;;;;23.21;100.00;100548.33;1701072;84;21049;-67
2021/05/24 08:25:11;;;;;;;8.00;3.40;;;;;;;23.28;100.00;100549.69;1700597;84;20973;-66
2021/05/24 08:27:38;;;;;;;9.13;3.30;;;;;;;23.35;100.00;100545.47;1702628;83;21633;-67
2021/05/24 08:30:07;;;;;;;4.60;2.57;;;;;;;23.42;100.00;100545.23;1697637;82;21116;-59
2021/05/24 08:32:34;;;;;;;4.97;2.60;;;;;;;23.43;100.00;100546.83;1700828;84;21661;-64
2021/05/24 08:35:04;;;;;;;4.43;2.20;;;;;;;23.40;100.00;100552.13;1699344;82;21084;-62
2021/05/24 08:37:33;;;;;;;7.50;3.43;;;;;;;23.45;100.00;100556.16;1652166;83;21062;-65
2021/05/24 08:39:59;;;;;;;5.77;2.80;;;;;;;23.46;100.00;100555.09;1698070;82;21167;-67
2021/05/24 08:42:30;;;;;;;7.83;2.40;;;;;;;23.55;100.00;100551.38;1696532;83;21092;-68
2021/05/24 08:44:57;;;;;;;4.80;2.10;;;;;;;23.67;100.00;100549.84;1691537;83;21651;-65
2021/05/24 08:47:25;;;;;;;4.97;1.93;;;;;;;23.74;97.79;100546.40;1690105;83;21075;-67
2021/05/24 08:49:52;;;;;;;6.17;2.23;;;;;;;23.78;92.48;100548.27;1698174;82;21858;-64
2021/05/24 08:52:18;;;;;;;8.40;2.73;;;;;;;23.75;90.81;100542.67;1694616;83;21027;-60
2021/05/24 08:54:47;;;;;;;8.47;3.07;;;;;;;23.81;92.64;100536.30;1693751;82;22150;-68
2021/05/24 08:57:13;;;;;;;10.57;4.17;;;;;;;23.89;100.00;100530.45;1694273;82;21114;-60
2021/05/24 08:59:40;;;;;;;8.83;3.87;;;;;;;24.00;99.37;100525.41;1695286;83;21439;-67
2021/05/24 09:02:07;;;;;;;7.57;2.87;;;;;;;24.11;99.44;100528.87;1690180;82;21569;-67
2021/05/24 09:04:48;;;;;;;5.57;2.30;;;;;;;24.06;92.13;100529.42;1675433;83;20979;-67
2021/05/24 09:07:16;;;;;;;4.87;2.27;;;;;;;23.83;91.39;100524.05;1679071;83;21707;-69
2021/05/24 09:10:01;;;;;;;7.53;2.37;;;;;;;23.66;96.25;100516.28;1677914;83;21093;-69
2021/05/24 09:12:32;;;;;;;6.43;2.70;;;;;;;23.62;96.83;100512.02;1681522;83;21011;-68
2021/05/24 09:15:01;;;;;;;6.62;3.50;;;;;;;23.52;98.49;100510.16;1675315;83;21005;-68
2021/05/24 09:17:50;;;;;;;;;;;;;;;23.49;100.00;100510.67;1679186;83;21707;-68
2021/05/24 09:20:28;;;;;;;6.77;2.63;;;;;;;23.49;99.04;100509.88;1677806;83;22466;-65
2021/05/24 09:23:12;;;;;;;4.97;2.40;;;;;;;23.44;100.00;100503.98;1679061;83;21070;-67
2021/05/24 09:25:55;;;;;;;8.33;2.37;;;;;;;23.48;100.00;100502.39;1673333;85;21136;-64
2021/05/24 09:28:40;;;;;;;4.47;2.00;;;;;;;23.61;100.00;100497.13;1680996;83;21113;-67
2021/05/24 09:31:20;;;;;;;5.23;2.17;;;;;;;23.81;100.00;100494.25;1671617;83;21031;-61
2021/05/24 09:34:05;;;;;;;5.37;1.97;;;;;;;24.04;100.00;100493.18;1676701;83;21238;-69
2021/05/24 09:36:33;;;;;;;6.60;2.30;;;;;;;24.17;100.00;100490.53;1675939;83;21214;-69
2021/05/24 09:39:04;;;;;;;6.53;2.40;;;;;;;24.35;98.71;100481.16;1671040;83;21071;-63
2021/05/24 09:41:43;;;;;;;3.87;1.50;;;;;;;24.51;93.88;100473.99;1671759;83;21027;-70
2021/05/24 09:44:21;;;;;;;3.80;1.80;;;;;;;24.60;83.53;100478.23;1669107;83;20971;-71
2021/05/24 09:46:50;;;;;;;5.03;1.90;;;;;;;24.63;82.13;100475.03;1677236;83;20976;-67
2021/05/24 09:49:17;;;;;;;6.33;1.90;;;;;;;24.82;86.93;100473.90;1679450;83;21011;-71
2021/05/24 09:51:45;;;;;;;3.70;1.70;;;;;;;25.10;86.81;100470.59;1678904;83;20964;-67
2021/05/24 09:54:13;;;;;;;5.60;1.90;;;;;;;25.35;90.27;100476.34;1673602;83;21023;-66
2021/05/24 09:56:46;;;;;;;7.80;1.90;;;;;;;25.50;83.52;100471.98;1675147;83;21036;-61
2021/05/24 09:59:25;;;;;;;6.20;2.30;;;;;;;25.56;78.37;100471.66;1677181;85;21177;-69
2021/05/24 10:01:59;;;;;;;5.80;1.97;;;;;;;25.61;75.34;100473.48;1676266;83;20993;-69
2021/05/24 10:04:32;;;;;;;4.30;1.47;;;;;;;25.48;70.29;100469.04;1675674;82;21012;-62
2021/05/24 10:07:03;;;;;;;4.30;1.80;;;;;;;25.30;75.17;100465.67;1652021;83;21301;-68
2021/05/24 10:09:32;;;;;;;7.27;2.10;;;;;;;25.39;75.28;100470.71;1677490;83;21154;-69
2021/05/24 10:12:03;;;;;;;3.77;1.90;;;;;;;25.66;75.55;100478.81;1680190;83;21039;-67
2021/05/24 10:14:30;;;;;;;6.07;2.67;;;;;;;25.86;74.08;100475.21;1676991;83;21041;-60
2021/05/24 10:17:02;;;;;;;5.13;2.20;;;;;;;25.87;71.80;100470.91;1675475;83;21029;-69
2021/05/24 10:19:30;;;;;;;5.70;2.17;;;;;;;25.78;72.12;100468.59;1677574;83;21174;-69
2021/05/24 10:21:58;;;;;;;8.50;2.43;;;;;;;25.69;72.49;100464.37;1675145;83;20946;-61
2021/05/24 10:24:25;;;;;;;6.30;2.70;;;;;;;25.58;71.00;100459.38;1678385;83;21109;-62
2021/05/24 10:26:57;;;;;;;6.27;2.20;;;;;;;25.43;73.50;100456.28;1678530;83;21704;-69
2021/05/24 10:29:23;;;;;;;7.10;2.27;;;;;;;25.34;79.00;100452.04;1677988;85;20947;-69
2021/05/24 10:31:51;;;;;;;4.97;2.20;;;;;;;25.28;85.82;100453.16;1680489;83;21070;-66
2021/05/24 10:34:20;;;;;;;8.30;2.30;;;;;;;25.26;86.47;100448.62;1675848;83;21647;-62
2021/05/24 10:36:50;;;;;;;10.07;1.80;;;;;;;25.31;84.63;100442.48;1674924;83;22318;-68
2021/05/24 10:39:24;;;;;;;4.60;2.25;;;;;;;25.34;83.53;100443.24;1673053;83;21609;-68
2021/05/24 10:41:58;;;;;;;3.90;2.10;;;;;;;25.39;81.91;100436.56;1679147;83;21856;-63
2021/05/24 10:44:47;;;;;;;9.37;2.80;;;;;;;25.53;82.31;100431.38;1676308;83;21217;-68
2021/05/24 10:47:21;;;;;;;4.90;2.37;;;;;;;25.73;79.92;100424.02;1663071;86;26599;-67
2021/05/24 10:50:05;;;;;;;5.27;2.60;;;;;;;26.04;65.97;100424.31;1661766;86;21083;-67
2021/05/24 10:52:36;;;;;;;7.20;2.23;;;;;;;26.29;65.87;100424.58;1662352;86;21067;-68
2021/05/24 10:55:29;;;;;;;6.20;2.70;;;;;;;26.55;60.58;100421.91;1661942;84;20968;-62
2021/05/24 10:58:04;;;;;;;5.03;2.35;;;;;;;26.69;57.40;100424.70;1663596;84;21074;-68
2021/05/24 11:00:59;;;;;;;8.90;2.92;;;;;;;26.83;58.77;100422.92;1638734;86;21013;-66
2021/05/24 11:03:26;;;;;;;4.80;2.42;;;;;;;27.02;58.37;100426.16;1662167;86;21096;-68
2021/05/24 11:06:15;;;;;;;8.85;3.40;;;;;;;27.27;55.70;100430.37;1662815;85;20968;-70
2021/05/24 11:09:05;;;;;;;11.45;2.87;;;;;;;27.31;57.58;100428.16;1663281;85;24672;-67
2021/05/24 11:11:38;;;;;;;6.85;2.98;;;;;;;27.18;56.56;100432.91;1663307;85;20984;-65
2021/05/24 11:14:07;;;;;;;7.60;3.52;;;;;;;26.88;59.29;100432.75;1662305;86;21099;-68
2021/05/24 11:16:35;;;;;;;10.38;3.77;;;;;;;26.61;62.08;100431.48;1660695;86;21184;-69
2021/05/24 11:19:14;;;;;;;9.58;3.15;;;;;;;26.42;63.04;100418.57;1662515;85;21008;-71
2021/05/24 11:21:54;;;;;;;8.90;3.42;;;;;;;26.32;64.29;100427.48;1661885;86;21510;-62